Time;durP1;ratioP1;P1;durP2;ratioP2;P2;SDS_P1;SDS_P2;PMS_P1;PMS_P2;Temp;Humidity;BMP_temperature;BMP_pressure;BME280_temperature;BME280_humidity;BME280_pressure;Samples;Min_cycle;Max_cycle;Signal;HPM_P1;HPM_P2
2021/09/08 00:00:43;;;;;;;9.75;4.47;;;384.40;2124.80;;;;;;5014267;28;20032;-83
2021/09/08 00:03:09;;;;;;;9.75;4.32;;;384.40;2124.80;;;;;;5014113;28;20481;-83
2021/09/08 00:05:36;;;;;;;9.90;5.55;;;384.10;2150.40;;;;;;5014559;28;20022;-84
2021/09/08 00:08:13;;;;;;;12.30;4.40;;;358.90;2201.60;;;;;;5014556;28;20034;-83
2021/09/08 00:10:44;;;;;;;8.27;4.22;;;384.00;2176.00;;;;;;4997770;28;20036;-85
2021/09/08 00:13:11;;;;;;;10.15;4.50;;;359.20;2201.60;;;;;;5014245;28;20026;-85
2021/09/08 00:15:37;;;;;;;9.77;4.78;;;359.10;2227.20;;;;;;5014195;28;20021;-84
2021/09/08 00:18:03;;;;;;;9.23;5.18;;;359.30;2227.20;;;;;;5013716;28;20057;-83
2021/09/08 00:20:39;;;;;;;8.73;4.70;;;359.30;2201.60;;;;;;5014965;28;20034;-83
2021/09/08 00:23:08;;;;;;;8.32;4.60;;;359.20;2227.20;;;;;;5013656;28;20026;-81
2021/09/08 00:25:34;;;;;;;10.13;4.18;;;359.30;2201.60;;;;;;5013784;28;20073;-83
2021/09/08 00:28:15;;;;;;;10.85;5.97;;;359.20;2227.20;;;;;;5014449;28;20511;-83
2021/09/08 00:30:53;;;;;;;10.00;5.47;;;358.80;2278.40;;;;;;5013267;28;20081;-85
2021/09/08 00:33:27;;;;;;;10.10;5.13;;;359.10;2227.20;;;;;;5013211;28;20033;-83
2021/09/08 00:36:02;;;;;;;12.50;4.65;;;359.00;2278.40;;;;;;5013242;28;20084;-83
2021/09/08 00:38:28;;;;;;;11.88;5.03;;;359.10;2252.80;;;;;;5013321;28;20540;-83
2021/09/08 00:40:59;;;;;;;10.57;4.88;;;359.10;2252.80;;;;;;5013466;28;20022;-83
2021/09/08 00:43:53;;;;;;;11.18;5.50;;;358.90;2304.00;;;;;;5014475;28;20080;-83
2021/09/08 00:46:19;;;;;;;11.55;5.78;;;358.90;2304.00;;;;;;5013171;28;20029;-85
2021/09/08 00:48:45;;;;;;;10.73;5.72;;;358.90;2304.00;;;;;;5012916;28;20079;-83
2021/09/08 00:51:11;;;;;;;12.20;5.95;;;358.90;2329.60;;;;;;5012980;28;20025;-83
2021/09/08 00:53:39;;;;;;;25.08;7.20;;;358.80;2329.60;;;;;;5013436;28;20022;-85
2021/09/08 00:56:08;;;;;;;11.65;6.15;;;358.90;2329.60;;;;;;5013236;28;20026;-83
2021/09/08 00:58:34;;;;;;;12.30;4.80;;;358.70;2329.60;;;;;;5012781;28;20113;-82
2021/09/08 01:01:00;;;;;;;11.68;4.88;;;358.60;2329.60;;;;;;5013345;28;20026;-83
2021/09/08 01:03:41;;;;;;;11.60;5.35;;;358.70;2329.60;;;;;;5013582;28;20536;-83
2021/09/08 01:06:24;;;;;;;12.65;5.63;;;358.80;2329.60;;;;;;5011480;28;20041;-84
2021/09/08 01:08:52;;;;;;;9.68;5.15;;;358.90;2329.60;;;;;;5013150;28;20065;-83
2021/09/08 01:11:18;;;;;;;10.57;5.15;;;358.90;2329.60;;;;;;5013435;28;20025;-84
2021/09/08 01:13:45;;;;;;;12.25;5.38;;;359.10;2329.60;;;;;;5012874;28;20033;-83
2021/09/08 01:16:12;;;;;;;12.00;5.45;;;359.10;2329.60;;;;;;5011756;28;20394;-84
2021/09/08 01:18:43;;;;;;;14.88;6.43;;;359.10;2329.60;;;;;;4996421;28;20530;-82
2021/09/08 01:21:15;;;;;;;8.27;4.75;;;333.70;2329.60;;;;;;4997097;28;20037;-83
2021/09/08 01:23:41;;;;;;;13.48;5.68;;;359.10;2329.60;;;;;;4996676;28;20045;-85
2021/09/08 01:26:09;;;;;;;9.48;4.88;;;359.00;2329.60;;;;;;5012582;28;20113;-83
2021/09/08 01:28:35;;;;;;;12.57;5.57;;;358.80;2329.60;;;;;;4996730;28;20033;-82
2021/09/08 01:31:04;;;;;;;9.63;4.80;;;359.00;2329.60;;;;;;5012868;28;20038;-83
2021/09/08 01:33:31;;;;;;;8.73;4.68;;;359.10;2329.60;;;;;;4995982;28;20478;-83
2021/09/08 01:39:16;;;;;;;12.75;6.35;;;358.70;2329.60;;;;;;4998248;28;20058;-83
2021/09/08 01:41:46;;;;;;;13.77;6.72;;;359.00;2329.60;;;;;;5013913;28;20037;-84
2021/09/08 01:44:23;;;;;;;13.07;6.10;;;359.00;2329.60;;;;;;5014055;28;20026;-84
2021/09/08 01:46:54;;;;;;;11.63;5.95;;;358.70;2329.60;;;;;;5013028;28;20033;-82
2021/09/08 01:49:20;;;;;;;14.30;5.50;;;358.90;2329.60;;;;;;5012683;28;20385;-82
2021/09/08 01:51:48;;;;;;;9.75;5.53;;;358.60;2329.60;;;;;;5012585;28;20497;-83
2021/09/08 01:54:14;;;;;;;10.18;5.00;;;358.90;2329.60;;;;;;4996117;28;20379;-82
2021/09/08 01:56:42;;;;;;;11.50;5.50;;;333.70;2329.60;;;;;;4996344;28;20030;-84
2021/09/08 01:59:07;;;;;;;10.93;5.75;;;333.70;2329.60;;;;;;5012585;28;20026;-83
2021/09/08 02:01:33;;;;;;;8.65;5.35;;;333.50;2329.60;;;;;;5011944;28;20117;-83
2021/09/08 02:04:00;;;;;;;8.88;5.35;;;333.70;2329.60;;;;;;5013753;28;20100;-81
2021/09/08 02:06:28;;;;;;;9.23;5.05;;;358.50;2329.60;;;;;;5014414;28;20089;-82
2021/09/08 02:08:58;;;;;;;8.88;4.82;;;358.70;2329.60;;;;;;4995746;28;20026;-83
2021/09/08 02:11:25;;;;;;;11.80;5.30;;;358.90;2329.60;;;;;;5011512;28;20030;-84
2021/09/08 02:13:52;;;;;;;13.65;5.05;;;358.60;2329.60;;;;;;5012229;28;20021;-83
2021/09/08 02:16:21;;;;;;;10.88;6.03;;;358.70;2329.60;;;;;;5011804;28;20030;-82
2021/09/08 02:19:01;;;;;;;10.85;4.97;;;333.70;2329.60;;;;;;5014205;28;20022;-80
2021/09/08 02:21:27;;;;;;;10.57;4.82;;;333.60;2329.60;;;;;;5011392;28;20481;-83
2021/09/08 02:23:57;;;;;;;11.18;5.05;;;333.70;2329.60;;;;;;5015046;28;20033;-83
2021/09/08 02:26:23;;;;;;;9.25;4.38;;;333.70;2329.60;;;;;;5015560;28;20029;-84
2021/09/08 02:28:53;;;;;;;12.63;4.90;;;333.70;2329.60;;;;;;5014401;28;20548;-84
2021/09/08 02:31:34;;;;;;;7.25;4.60;;;358.50;2329.60;;;;;;5015716;28;20117;-83
2021/09/08 02:34:44;;;;;;;9.77;4.80;;;358.80;2329.60;;;;;;5015282;28;20054;-82
2021/09/08 02:37:21;;;;;;;11.63;4.90;;;358.80;2329.60;;;;;;5014777;28;20038;-84
2021/09/08 02:39:53;;;;;;;10.95;5.40;;;359.00;2329.60;;;;;;5015318;28;20034;-83
2021/09/08 02:42:22;;;;;;;9.98;5.70;;;358.70;2329.60;;;;;;5017022;28;20025;-87
2021/09/08 02:44:49;;;;;;;10.00;5.53;;;333.30;2329.60;;;;;;4999016;28;20486;-84
2021/09/08 02:47:16;;;;;;;12.50;6.43;;;358.60;2329.60;;;;;;5015603;28;20030;-82
2021/09/08 02:49:43;;;;;;;13.45;5.22;;;358.50;2329.60;;;;;;5014702;28;20026;-83
2021/09/08 02:52:09;;;;;;;9.15;5.20;;;333.40;2329.60;;;;;;5015459;28;20030;-83
2021/09/08 02:54:36;;;;;;;9.50;4.38;;;333.30;2329.60;;;;;;5015335;28;20441;-84
2021/09/08 02:57:02;;;;;;;8.68;4.95;;;333.30;2329.60;;;;;;4998754;28;20026;-84
2021/09/08 02:59:30;;;;;;;13.35;5.80;;;333.20;2329.60;;;;;;5015940;28;20037;-84
2021/09/08 03:02:01;;;;;;;8.27;4.93;;;333.20;2329.60;;;;;;5015143;28;20076;-82
2021/09/08 03:04:27;;;;;;;9.20;5.35;;;333.40;2329.60;;;;;;5014283;28;20100;-82
2021/09/08 03:06:56;;;;;;;7.90;5.30;;;333.50;2329.60;;;;;;5015244;28;20030;-84
2021/09/08 03:09:25;;;;;;;13.68;5.25;;;333.50;2329.60;;;;;;5015106;28;20478;-84
2021/09/08 03:11:52;;;;;;;10.10;4.93;;;333.60;2329.60;;;;;;5014834;28;20505;-83
2021/09/08 03:14:18;;;;;;;10.50;5.50;;;333.40;2329.60;;;;;;5015002;28;20069;-81
2021/09/08 03:17:39;;;;;;;7.78;4.80;;;333.50;2329.60;;;;;;5014881;28;20076;-84
2021/09/08 03:19:47;;;;;;;9.50;5.25;;;333.40;2329.60;;;;;;5011018;28;20037;-84
2021/09/08 03:22:22;;;;;;;9.48;4.97;;;333.40;2329.60;;;;;;5013906;28;20034;-84
2021/09/08 03:24:49;;;;;;;8.02;5.18;;;333.40;2329.60;;;;;;5014505;28;20025;-82
2021/09/08 03:27:15;;;;;;;11.27;5.47;;;333.60;2329.60;;;;;;5015407;28;20535;-82
2021/09/08 03:29:45;;;;;;;10.50;5.22;;;333.40;2329.60;;;;;;5014329;28;20096;-83
2021/09/08 03:32:17;;;;;;;9.23;5.38;;;333.10;2329.60;;;;;;5015941;28;20029;-83
2021/09/08 03:34:46;;;;;;;9.60;4.90;;;308.10;2304.00;;;;;;5014172;28;20068;-82
2021/09/08 03:37:27;;;;;;;8.05;4.65;;;333.00;2329.60;;;;;;5011771;28;20046;-82
2021/09/08 03:39:56;;;;;;;9.25;4.63;;;332.90;2329.60;;;;;;5014302;28;20384;-84
2021/09/08 03:42:27;;;;;;;10.88;5.18;;;333.00;2329.60;;;;;;5015789;28;20026;-82
2021/09/08 03:44:58;;;;;;;12.55;5.28;;;333.10;2329.60;;;;;;5014496;28;20045;-82
2021/09/08 03:47:25;;;;;;;8.73;5.32;;;332.90;2329.60;;;;;;5014157;28;20072;-82
2021/09/08 03:50:03;;;;;;;13.50;5.30;;;332.90;2329.60;;;;;;5014486;28;20099;-82
2021/09/08 03:52:29;;;;;;;8.98;5.00;;;308.00;2304.00;;;;;;5014318;28;20030;-83
2021/09/08 03:54:57;;;;;;;8.98;4.97;;;358.50;2329.60;;;;;;4997797;28;20041;-81
2021/09/08 03:57:36;;;;;;;11.18;5.05;;;307.90;2304.00;;;;;;5014149;28;20096;-85
2021/09/08 04:00:05;;;;;;;9.77;4.72;;;308.10;2304.00;;;;;;5013872;28;20045;-82
2021/09/08 04:02:43;;;;;;;10.07;5.95;;;332.80;2329.60;;;;;;5014101;28;20092;-81
2021/09/08 04:05:10;;;;;;;11.05;5.72;;;307.90;2304.00;;;;;;5014290;28;20022;-81
2021/09/08 04:07:36;;;;;;;18.13;6.03;;;307.90;2304.00;;;;;;5013932;28;20053;-84
2021/09/08 04:10:11;;;;;;;11.95;5.60;;;307.50;2304.00;;;;;;5014092;28;20092;-82
2021/09/08 04:12:43;;;;;;;11.98;5.68;;;307.80;2304.00;;;;;;5009431;28;20425;-83
2021/09/08 04:15:11;;;;;;;9.13;5.80;;;308.00;2304.00;;;;;;5013733;28;20030;-83
2021/09/08 04:17:43;;;;;;;8.73;5.57;;;332.90;2329.60;;;;;;5013815;28;20030;-84
2021/09/08 04:20:18;;;;;;;13.30;6.05;;;332.90;2329.60;;;;;;5017105;28;20025;-82
2021/09/08 04:22:47;;;;;;;15.25;7.05;;;307.70;2304.00;;;;;;5013269;28;20037;-84
2021/09/08 04:25:16;;;;;;;10.88;5.57;;;307.90;2304.00;;;;;;5013668;28;20596;-84
2021/09/08 04:27:42;;;;;;;13.82;5.47;;;307.70;2304.00;;;;;;5007433;28;20029;-84
2021/09/08 04:30:10;;;;;;;14.02;6.32;;;307.60;2304.00;;;;;;5012621;28;20069;-84
2021/09/08 04:32:36;;;;;;;17.20;6.07;;;307.70;2304.00;;;;;;5013814;28;20065;-84
2021/09/08 04:35:06;;;;;;;14.57;5.40;;;307.50;2304.00;;;;;;5013442;28;20037;-85
2021/09/08 04:37:37;;;;;;;11.48;4.78;;;307.70;2304.00;;;;;;5014620;28;20030;-85
2021/09/08 04:40:05;;;;;;;11.35;5.40;;;307.80;2304.00;;;;;;5012848;28;20037;-84
2021/09/08 04:42:31;;;;;;;13.32;5.38;;;307.90;2304.00;;;;;;5013329;28;20025;-84
2021/09/08 04:45:10;;;;;;;16.33;6.10;;;308.00;2304.00;;;;;;5014811;28;20573;-82
2021/09/08 04:47:47;;;;;;;15.38;8.25;;;332.80;2329.60;;;;;;4997098;28;20489;-83
2021/09/08 04:50:16;;;;;;;12.80;7.15;;;308.10;2304.00;;;;;;4998242;28;20488;-84
2021/09/08 04:52:45;;;;;;;11.13;5.78;;;307.50;2304.00;;;;;;5013319;28;20421;-86
2021/09/08 04:55:25;;;;;;;11.95;5.80;;;307.60;2304.00;;;;;;5014236;28;20418;-84
2021/09/08 04:57:51;;;;;;;15.02;6.25;;;307.60;2304.00;;;;;;5013135;28;20029;-84
2021/09/08 05:00:18;;;;;;;15.55;6.75;;;307.70;2304.00;;;;;;5012892;28;20069;-84
2021/09/08 05:02:50;;;;;;;15.90;6.10;;;308.00;2304.00;;;;;;5013021;28;20022;-81
2021/09/08 05:05:16;;;;;;;17.57;6.70;;;307.50;2304.00;;;;;;5013089;28;20022;-83
2021/09/08 05:07:42;;;;;;;14.93;5.90;;;307.50;2304.00;;;;;;5013373;28;20068;-83
2021/09/08 05:10:09;;;;;;;11.15;6.82;;;307.40;2304.00;;;;;;5013297;28;20374;-82
2021/09/08 05:12:38;;;;;;;17.88;6.03;;;307.90;2304.00;;;;;;5013394;28;20088;-80
2021/09/08 05:18:14;;;;;;;17.25;6.55;;;307.40;2304.00;;;;;;4992045;28;20077;-78
2021/09/08 05:20:44;;;;;;;13.15;6.15;;;307.30;2304.00;;;;;;5004624;28;20038;-82
2021/09/08 05:23:12;;;;;;;17.20;7.35;;;307.30;2304.00;;;;;;5013799;28;20030;-82
2021/09/08 05:25:39;;;;;;;16.40;6.82;;;307.50;2304.00;;;;;;5013070;28;20123;-81
2021/09/08 05:28:05;;;;;;;16.60;7.97;;;307.80;2304.00;;;;;;5013803;28;20034;-83
2021/09/08 05:30:33;;;;;;;13.82;7.05;;;332.80;2329.60;;;;;;5013370;28;20099;-83
2021/09/08 05:33:02;;;;;;;15.93;7.70;;;308.00;2304.00;;;;;;4997716;28;20177;-81
2021/09/08 05:35:45;;;;;;;19.30;7.20;;;308.10;2304.00;;;;;;5011999;28;20038;-83
2021/09/08 05:38:11;;;;;;;12.65;6.97;;;308.10;2304.00;;;;;;5013891;28;20026;-81
2021/09/08 05:40:40;;;;;;;15.35;6.88;;;308.00;2304.00;;;;;;5014559;28;20025;-87
2021/09/08 05:43:06;;;;;;;19.63;7.40;;;307.90;2304.00;;;;;;5014932;28;20474;-82
2021/09/08 05:45:38;;;;;;;15.52;7.05;;;332.90;2329.60;;;;;;5013733;28;20029;-82
2021/09/08 05:48:06;;;;;;;18.10;7.40;;;308.10;2304.00;;;;;;5014322;28;20029;-84
2021/09/08 05:50:36;;;;;;;11.43;6.60;;;332.90;2329.60;;;;;;5014644;28;20137;-83
2021/09/08 05:53:25;;;;;;;18.80;7.22;;;333.10;2329.60;;;;;;5001518;28;20057;-82
2021/09/08 05:55:53;;;;;;;20.88;8.05;;;333.10;2329.60;;;;;;5013113;28;20464;-80
2021/09/08 05:58:20;;;;;;;18.58;7.40;;;333.30;2329.60;;;;;;5018337;28;20113;-82
2021/09/08 06:00:46;;;;;;;17.02;7.00;;;333.30;2329.60;;;;;;5018428;28;20022;-83
2021/09/08 06:03:13;;;;;;;19.95;6.70;;;333.50;2329.60;;;;;;5018399;28;20115;-83
2021/09/08 06:05:41;;;;;;;14.10;7.15;;;333.70;2329.60;;;;;;5019049;28;20160;-83
2021/09/08 06:08:07;;;;;;;17.48;7.47;;;333.70;2329.60;;;;;;5020353;28;20022;-81
2021/09/08 06:10:33;;;;;;;17.83;8.00;;;333.60;2329.60;;;;;;5039485;28;20018;-83
2021/09/08 06:13:05;;;;;;;21.50;9.30;;;333.50;2329.60;;;;;;5038251;28;20033;-81
2021/09/08 06:15:32;;;;;;;14.60;6.63;;;333.50;2329.60;;;;;;5038760;28;20022;-82
2021/09/08 06:18:19;;;;;;;14.70;6.78;;;333.70;2329.60;;;;;;5038052;28;20747;-82
2021/09/08 06:20:46;;;;;;;12.57;5.88;;;358.40;2329.60;;;;;;5035753;28;20098;-83
2021/09/08 06:23:12;;;;;;;11.40;6.40;;;358.50;2329.60;;;;;;5020553;28;20034;-83
2021/09/08 06:26:03;;;;;;;13.13;6.07;;;358.50;2329.60;;;;;;5039077;28;20060;-82
2021/09/08 06:28:41;;;;;;;13.40;6.65;;;358.60;2329.60;;;;;;5040206;28;20049;-81
2021/09/08 06:31:19;;;;;;;15.90;7.67;;;358.80;2329.60;;;;;;5039512;28;20034;-83
2021/09/08 06:33:50;;;;;;;12.90;8.07;;;358.80;2329.60;;;;;;5039702;28;20013;-82
2021/09/08 06:36:16;;;;;;;15.50;7.47;;;358.80;2329.60;;;;;;5040524;28;20033;-82
2021/09/08 06:38:54;;;;;;;12.93;7.45;;;359.00;2329.60;;;;;;5033153;28;20081;-82
2021/09/08 06:41:25;;;;;;;14.80;7.35;;;359.10;2329.60;;;;;;5015832;28;20117;-82
2021/09/08 06:43:52;;;;;;;21.83;7.57;;;359.20;2329.60;;;;;;5016153;28;20073;-81
2021/09/08 06:46:19;;;;;;;13.90;7.93;;;384.00;2329.60;;;;;;5016272;28;20437;-84
2021/09/08 06:48:45;;;;;;;11.38;7.35;;;384.30;2329.60;;;;;;5015330;28;20124;-83
2021/09/08 06:51:11;;;;;;;18.58;7.35;;;384.30;2329.60;;;;;;5015520;28;20462;-82
2021/09/08 06:53:37;;;;;;;18.58;7.80;;;384.60;2329.60;;;;;;5015355;28;20033;-85
2021/09/08 06:56:04;;;;;;;16.92;8.43;;;384.80;2329.60;;;;;;5015661;28;20026;-81
2021/09/08 06:58:30;;;;;;;14.15;8.43;;;384.90;2329.60;;;;;;5016686;28;20088;-83
2021/09/08 07:00:56;;;;;;;18.88;9.55;;;409.70;2355.20;;;;;;5017033;28;20022;-82
2021/09/08 07:03:21;;;;;;;27.05;12.80;;;409.90;2355.20;;;;;;5014212;28;20026;-82
2021/09/08 07:05:47;;;;;;;21.65;10.77;;;410.00;2355.20;;;;;;5015415;28;20026;-83
2021/09/08 07:08:15;;;;;;;19.20;10.50;;;410.20;2355.20;;;;;;5015758;28;20480;-78
2021/09/08 07:10:41;;;;;;;19.58;11.20;;;410.30;2355.20;;;;;;5015599;28;20160;-80
2021/09/08 07:13:07;;;;;;;18.65;9.63;;;435.60;2355.20;;;;;;5015853;28;20026;-81
2021/09/08 07:15:34;;;;;;;20.95;9.90;;;435.30;2355.20;;;;;;5015912;28;20639;-84
2021/09/08 07:18:00;;;;;;;22.90;10.68;;;435.40;2355.20;;;;;;5015318;28;20505;-82
2021/09/08 07:20:26;;;;;;;18.15;10.18;;;435.70;2355.20;;;;;;5015717;28;20490;-82
2021/09/08 07:22:52;;;;;;;20.17;11.18;;;435.70;2355.20;;;;;;5016790;28;20108;-81
2021/09/08 07:25:18;;;;;;;18.15;9.23;;;435.90;2355.20;;;;;;5015850;28;20080;-82
2021/09/08 07:27:44;;;;;;;16.13;9.15;;;460.80;2380.80;;;;;;5015789;28;20508;-81
2021/09/08 07:30:10;;;;;;;19.45;9.20;;;460.80;2380.80;;;;;;5015142;28;20057;-80
2021/09/08 07:32:36;;;;;;;13.23;6.55;;;460.90;2380.80;;;;;;5016531;28;20022;-83
2021/09/08 07:35:02;;;;;;;17.23;8.02;;;461.10;2380.80;;;;;;5016672;28;20112;-79
2021/09/08 07:37:28;;;;;;;17.10;9.07;;;461.20;2380.80;;;;;;5016394;28;20389;-81
2021/09/08 07:39:54;;;;;;;19.08;9.23;;;461.50;2380.80;;;;;;5016726;28;20030;-81
2021/09/08 07:42:20;;;;;;;15.85;8.00;;;461.60;2380.80;;;;;;5015484;28;20425;-81
2021/09/08 07:44:46;;;;;;;16.63;9.65;;;486.40;2380.80;;;;;;5014816;28;20026;-80
2021/09/08 07:47:12;;;;;;;13.63;6.38;;;486.40;2380.80;;;;;;5015069;28;20083;-82
2021/09/08 07:49:38;;;;;;;11.60;6.05;;;486.50;2380.80;;;;;;5014936;28;20026;-81
2021/09/08 07:52:04;;;;;;;10.57;7.63;;;486.50;2380.80;;;;;;5014619;28;20030;-81
2021/09/08 07:54:30;;;;;;;10.38;4.30;;;486.50;2380.80;;;;;;5015646;28;20428;-83
2021/09/08 07:56:56;;;;;;;14.40;6.13;;;486.40;2380.80;;;;;;5015869;28;20037;-81
2021/09/08 07:59:22;;;;;;;10.35;6.32;;;486.80;2380.80;;;;;;5015100;28;20026;-81
2021/09/08 08:01:48;;;;;;;19.02;8.65;;;487.00;2380.80;;;;;;5014949;28;20057;-84
2021/09/08 08:04:14;;;;;;;14.68;6.95;;;487.30;2380.80;;;;;;5016186;28;20040;-80
2021/09/08 08:06:40;;;;;;;14.43;4.10;;;512.10;2380.80;;;;;;5015095;28;20065;-83
2021/09/08 08:09:06;;;;;;;5.80;3.85;;;512.20;2380.80;;;;;;5015272;28;20058;-79
2021/09/08 08:11:33;;;;;;;8.38;5.03;;;512.30;2380.80;;;;;;5015677;28;20108;-81
2021/09/08 08:13:59;;;;;;;11.82;3.63;;;512.50;2380.80;;;;;;5016045;28;20064;-79
2021/09/08 08:16:25;;;;;;;9.20;5.07;;;512.50;2380.80;;;;;;5014618;28;20028;-80
2021/09/08 08:18:51;;;;;;;8.13;3.35;;;512.60;2380.80;;;;;;5015519;28;20381;-79
2021/09/08 08:21:17;;;;;;;8.55;4.40;;;512.50;2380.80;;;;;;5016091;28;20048;-80
2021/09/08 08:23:43;;;;;;;5.90;4.03;;;512.50;2380.80;;;;;;5014398;28;20474;-80
2021/09/08 08:26:08;;;;;;;9.45;3.50;;;512.60;2380.80;;;;;;5014030;28;20034;-79
2021/09/08 08:28:34;;;;;;;17.05;10.73;;;512.70;2380.80;;;;;;5014238;28;20054;-81
2021/09/08 08:31:01;;;;;;;11.50;5.70;;;512.60;2380.80;;;;;;5015052;28;20050;-80
2021/09/08 08:33:27;;;;;;;8.40;5.07;;;512.80;2355.20;;;;;;5015976;28;20026;-79
2021/09/08 08:35:53;;;;;;;8.85;4.45;;;512.90;2329.60;;;;;;5014119;28;20030;-79
2021/09/08 08:38:19;;;;;;;6.40;3.17;;;537.80;2380.80;;;;;;5012710;28;20065;-78
2021/09/08 08:40:45;;;;;;;9.93;3.38;;;538.00;2329.60;;;;;;5013529;28;20061;-79
2021/09/08 08:43:12;;;;;;;7.47;3.78;;;537.80;2304.00;;;;;;5013465;28;20049;-79
2021/09/08 08:45:38;;;;;;;9.48;3.30;;;537.80;2304.00;;;;;;5015540;28;20520;-79
2021/09/08 08:48:04;;;;;;;7.53;3.30;;;537.90;2304.00;;;;;;5015567;28;20030;-78
2021/09/08 08:50:30;;;;;;;9.63;3.60;;;537.90;2304.00;;;;;;5013708;28;20789;-79
2021/09/08 08:52:57;;;;;;;26.33;22.00;;;538.00;2304.00;;;;;;5013881;28;20022;-80
2021/09/08 08:55:26;;;;;;;11.65;6.18;;;538.10;2278.40;;;;;;5014649;28;20030;-79
2021/09/08 08:57:52;;;;;;;5.93;3.10;;;538.20;2227.20;;;;;;5013221;28;20128;-78
2021/09/08 09:00:19;;;;;;;6.55;2.80;;;538.10;2252.80;;;;;;5013305;28;20117;-78
2021/09/08 09:02:48;;;;;;;7.68;3.50;;;538.10;2227.20;;;;;;5013633;28;20029;-78
2021/09/08 09:05:34;;;;;;;9.35;4.28;;;538.20;2252.80;;;;;;5013253;28;20530;-78
2021/09/08 09:08:00;;;;;;;6.28;3.53;;;538.50;2227.20;;;;;;5014736;28;20030;-78
2021/09/08 09:10:26;;;;;;;10.27;3.70;;;538.30;2252.80;;;;;;5012946;28;20541;-80
2021/09/08 09:12:53;;;;;;;11.20;5.82;;;563.20;2227.20;;;;;;5014441;28;20060;-78
2021/09/08 09:15:21;;;;;;;7.63;4.35;;;563.50;2201.60;;;;;;5013647;28;20038;-78
2021/09/08 09:17:48;;;;;;;8.48;3.67;;;563.70;2176.00;;;;;;5013280;28;20547;-80
2021/09/08 09:20:18;;;;;;;7.68;2.67;;;563.90;2150.40;;;;;;5013183;28;20057;-79
2021/09/08 09:22:55;;;;;;;7.40;4.72;;;564.10;2124.80;;;;;;5014587;28;20140;-78
2021/09/08 09:25:27;;;;;;;8.45;3.30;;;564.00;2150.40;;;;;;5013064;28;20022;-79
2021/09/08 09:27:56;;;;;;;6.43;3.67;;;588.80;2124.80;;;;;;5012768;28;20036;-77
2021/09/08 09:30:27;;;;;;;7.60;4.13;;;588.80;2099.20;;;;;;5012803;28;20120;-79
2021/09/08 09:32:55;;;;;;;11.88;5.00;;;588.80;2073.60;;;;;;5013009;28;20026;-80
2021/09/08 09:35:23;;;;;;;6.70;3.25;;;589.00;1996.80;;;;;;5013128;28;20469;-79
2021/09/08 09:37:51;;;;;;;7.15;3.40;;;588.80;2022.40;;;;;;5013072;28;20057;-80
2021/09/08 09:40:22;;;;;;;10.73;4.53;;;564.10;1996.80;;;;;;5012900;28;20485;-78
2021/09/08 09:42:47;;;;;;;12.73;7.47;;;564.10;1996.80;;;;;;5013412;28;20169;-79
2021/09/08 09:45:15;;;;;;;11.05;7.05;;;588.90;1996.80;;;;;;5014354;28;20489;-80
2021/09/08 09:47:44;;;;;;;14.25;5.40;;;588.90;1996.80;;;;;;5013683;28;20034;-81
2021/09/08 09:50:17;;;;;;;15.77;7.13;;;588.80;1971.20;;;;;;5012946;28;20033;-79
2021/09/08 09:52:54;;;;;;;6.85;4.15;;;588.90;1996.80;;;;;;5012792;28;20378;-81
2021/09/08 09:55:21;;;;;;;9.10;4.05;;;589.10;1971.20;;;;;;5013912;28;20030;-79
2021/09/08 09:57:48;;;;;;;7.03;3.47;;;589.20;1971.20;;;;;;5013301;28;20034;-80
2021/09/08 10:00:16;;;;;;;9.57;4.07;;;589.10;1971.20;;;;;;5014480;28;20081;-80
2021/09/08 10:02:43;;;;;;;11.80;4.97;;;589.20;1945.60;;;;;;5019725;28;20037;-80
2021/09/08 10:05:10;;;;;;;6.93;3.63;;;589.40;1945.60;;;;;;5013444;28;20053;-81
2021/09/08 10:07:36;;;;;;;6.00;3.25;;;589.60;1894.40;;;;;;5014210;28;20394;-79
2021/09/08 10:10:16;;;;;;;10.05;5.72;;;614.40;1868.80;;;;;;5012039;28;20041;-79
2021/09/08 10:12:57;;;;;;;7.60;4.90;;;614.40;1894.40;;;;;;5013449;28;20370;-80
2021/09/08 10:15:26;;;;;;;11.90;3.83;;;589.70;1894.40;;;;;;5012903;28;20121;-80
2021/09/08 10:17:51;;;;;;;7.50;3.00;;;614.40;1868.80;;;;;;5013215;28;20529;-78
2021/09/08 10:20:23;;;;;;;6.68;3.25;;;614.70;1868.80;;;;;;5013021;28;20116;-79
2021/09/08 10:22:51;;;;;;;6.80;3.30;;;614.90;1817.60;;;;;;5012998;28;20500;-79
2021/09/08 10:25:19;;;;;;;14.45;5.88;;;615.20;1766.40;;;;;;5014567;28;20058;-80
2021/09/08 10:27:46;;;;;;;6.97;4.00;;;640.10;1817.60;;;;;;5012714;28;20478;-80
2021/09/08 10:30:12;;;;;;;7.80;4.00;;;640.20;1766.40;;;;;;5010796;28;20513;-79
2021/09/08 10:32:39;;;;;;;6.68;3.60;;;640.10;1715.20;;;;;;5013080;28;20033;-81
2021/09/08 10:35:14;;;;;;;6.65;3.65;;;640.50;1715.20;;;;;;5013517;28;20022;-78
2021/09/08 10:37:51;;;;;;;8.43;4.03;;;640.90;1715.20;;;;;;5013738;28;20088;-81
2021/09/08 10:40:23;;;;;;;6.95;3.58;;;665.90;1715.20;;;;;;5016000;28;20061;-81
2021/09/08 10:42:59;;;;;;;9.88;3.88;;;666.00;1664.00;;;;;;5016179;28;20030;-80
2021/09/08 10:45:27;;;;;;;7.78;4.32;;;666.20;1638.40;;;;;;5017545;28;20037;-80
2021/09/08 10:47:56;;;;;;;8.57;3.55;;;666.50;1612.80;;;;;;5017787;28;20026;-80
2021/09/08 10:50:34;;;;;;;6.72;3.17;;;691.20;1638.40;;;;;;5016331;28;20490;-79
2021/09/08 10:53:04;;;;;;;6.32;3.13;;;691.50;1587.20;;;;;;5016659;28;20095;-80
2021/09/08 10:55:44;;;;;;;7.00;3.08;;;691.50;1587.20;;;;;;5016542;28;20512;-80
2021/09/08 10:58:10;;;;;;;5.38;2.72;;;691.60;1561.60;;;;;;5016437;28;20033;-79
2021/09/08 11:00:39;;;;;;;9.18;5.97;;;691.40;1561.60;;;;;;5016354;28;20482;-79
2021/09/08 11:03:09;;;;;;;7.68;3.90;;;666.50;1561.60;;;;;;5016679;28;20109;-80
2021/09/08 11:05:49;;;;;;;8.75;3.88;;;666.10;1587.20;;;;;;5017267;28;20553;-79
2021/09/08 11:08:33;;;;;;;9.95;3.10;;;665.90;1587.20;;;;;;5016986;28;20436;-79
2021/09/08 11:11:17;;;;;;;10.40;4.68;;;666.10;1587.20;;;;;;5016922;28;20030;-79
2021/09/08 11:13:44;;;;;;;10.20;4.28;;;666.40;1561.60;;;;;;5017352;28;20022;-80
2021/09/08 11:16:20;;;;;;;8.15;4.82;;;691.70;1536.00;;;;;;5016498;28;20026;-79
2021/09/08 11:18:46;;;;;;;6.38;3.90;;;692.10;1510.40;;;;;;5017400;28;20061;-80
2021/09/08 11:21:13;;;;;;;8.02;3.53;;;717.10;1536.00;;;;;;5017153;28;20117;-80
2021/09/08 11:23:39;;;;;;;7.93;4.05;;;717.40;1433.60;;;;;;5015797;28;20189;-80
2021/09/08 11:26:08;;;;;;;7.25;3.03;;;717.50;1484.80;;;;;;5016911;28;20049;-81
2021/09/08 11:28:37;;;;;;;5.85;3.78;;;717.00;1459.20;;;;;;5015968;28;20030;-80
2021/09/08 11:31:33;;;;;;;10.25;4.13;;;716.80;1484.80;;;;;;5015588;28;20049;-82
2021/09/08 11:33:58;;;;;;;15.00;5.28;;;716.90;1433.60;;;;;;5009992;28;20042;-82
2021/09/08 11:36:24;;;;;;;12.88;8.68;;;717.50;1484.80;;;;;;5015932;28;20029;-80
2021/09/08 11:38:58;;;;;;;12.68;4.38;;;742.40;1484.80;;;;;;5016816;28;20466;-81
2021/09/08 11:41:25;;;;;;;8.02;3.40;;;717.50;1408.00;;;;;;5017043;28;20470;-80
2021/09/08 11:43:53;;;;;;;7.22;3.45;;;742.50;1459.20;;;;;;5015382;28;20100;-80
2021/09/08 11:46:23;;;;;;;8.48;3.33;;;742.80;1459.20;;;;;;5015373;28;20470;-80
2021/09/08 11:49:03;;;;;;;5.38;3.08;;;742.90;1382.40;;;;;;5015312;28;20460;-78
2021/09/08 11:51:34;;;;;;;8.50;3.28;;;743.20;1382.40;;;;;;5016564;28;20034;-78
2021/09/08 11:54:03;;;;;;;9.23;2.78;;;768.10;1356.80;;;;;;5015543;28;20030;-79
2021/09/08 11:56:29;;;;;;;9.48;6.68;;;768.60;1331.20;;;;;;5017214;28;20057;-79
2021/09/08 11:59:03;;;;;;;7.90;3.85;;;768.70;1331.20;;;;;;5015017;28;20516;-79
2021/09/08 12:01:38;;;;;;;5.40;3.67;;;768.60;1280.00;;;;;;5015656;28;20133;-79
2021/09/08 12:04:04;;;;;;;5.03;2.67;;;768.70;1305.60;;;;;;5014535;28;20026;-79
2021/09/08 12:06:54;;;;;;;4.40;2.40;;;768.60;1280.00;;;;;;5014572;28;20026;-80
2021/09/08 12:09:26;;;;;;;7.38;2.70;;;768.70;1280.00;;;;;;5014845;28;20061;-79
2021/09/08 12:11:59;;;;;;;7.68;3.00;;;768.90;1305.60;;;;;;5015571;28;20026;-79
2021/09/08 12:14:31;;;;;;;9.30;4.18;;;768.30;1280.00;;;;;;5014439;28;20032;-80
2021/09/08 12:17:14;;;;;;;11.27;6.28;;;768.10;1305.60;;;;;;5014295;28;20061;-79
2021/09/08 12:19:54;;;;;;;10.65;4.97;;;743.10;1305.60;;;;;;5014291;28;20041;-78
2021/09/08 12:22:36;;;;;;;8.52;4.20;;;742.50;1331.20;;;;;;5014007;28;20040;-79
2021/09/08 12:25:15;;;;;;;6.72;3.75;;;717.70;1331.20;;;;;;5015508;28;20022;-79
2021/09/08 12:27:43;;;;;;;6.65;4.25;;;717.40;1331.20;;;;;;5013987;28;20157;-79
2021/09/08 12:30:16;;;;;;;8.88;4.15;;;717.30;1356.80;;;;;;5014018;28;20046;-78